Weather observations for the past three days for
La Grande/Union County Airport
Imperial (Metric)
Date Time (pdt) Wind (mph) Vis. (mi.) Weather Sky Cond. Temperature (ºF) Relative Humidity Wind Chill (°F) Heat Index (°F) Pressure Precipitation (in)
Air Dwpt 6 hour altimeter (in) sea level (mb) 1 hr 3 hr 6 hr
Max. Min.
07 12:56 N 8 10.00 Fair CLR 69.1 41 36% 30.01 1015.3
07 11:56 N 13 G 16 10.00 Fair CLR 68 39.9 36% 30.02 1015.8
07 10:56 N 10 G 16 10.00 Fair CLR 66 37.9 66.9 50 36% 30.02 1015.8
07 09:56 NW 6 10.00 Fair CLR 64 39 40% 30.03 1016.0
07 08:56 NW 9 10.00 Fair CLR 60.1 37 42% 30.04 1016.3
07 07:56 N 8 10.00 Fair CLR 59 37 44% 30.04 1016.3
07 06:56 N 8 10.00 Fair CLR 55 35.1 47% 30.03 1016.0
07 05:56 N 8 10.00 Fair CLR 51.1 35.1 54% 30.02 1015.7
07 04:56 W 5 10.00 Fair CLR 50 35.1 60.1 46 57% 49 30.02 1015.7
07 03:56 Calm 10.00 Fair CLR 48 35.1 61% 30.02 1015.7
07 02:56 NE 6 10.00 Fair CLR 50 34 54% 48 30.02 1015.5
07 01:56 N 13 10.00 Fair CLR 55.9 33.1 42% 30.02 1015.0
07 00:56 NE 7 10.00 Fair CLR 55.9 32 40% 30.02 1015.3
06 23:56 NE 7 10.00 Fair CLR 55.9 33.1 42% 30.02 1015.5
06 22:56 NW 8 10.00 Fair CLR 59 34 77 57 39% 30.02 1015.4
06 21:56 N 12 10.00 Fair CLR 61 34 36% 30.01 1015.4
06 20:56 NW 9 10.00 Fair CLR 66 35.1 32% 30 1015.2
06 19:56 N 9 10.00 Fair CLR 68 37 32% 29.98 1014.7
06 18:56 NW 16 G 26 10.00 Fair CLR 72 36 27% 29.97 1014.2
06 17:56 NW 18 G 23 10.00 Fair CLR 75.9 37.9 25% 77 29.96 1014.0
06 16:56 NW 15 10.00 Fair CLR 75.9 48 81 71.1 37% 78 29.95 1013.6
06 15:56 NW 14 10.00 Fair CLR 80.1 42.1 26% 79 29.95 1013.2
06 14:56 Vrbl 5 10.00 Fair CLR 79 46.9 32% 79 29.96 1013.5
06 13:56 SE 13 10.00 Fair CLR 79 46 31% 79 29.97 1014.1
06 12:56 S 12 10.00 Fair CLR 75.9 44.1 32% 77 29.99 1014.9
06 11:56 S 14 G 20 10.00 Fair CLR 73 44.1 35% 30.02 1015.8
06 10:56 S 10 10.00 Fair CLR 71.1 43 71.1 43 36% 30.03 1016.3
06 09:56 SE 8 10.00 Fair CLR 66.9 46 47% 30.04 1016.4
06 08:56 E 3 10.00 Fair CLR 59 44.1 58% 30.05 1017.0
06 07:56 Calm 10.00 Fair CLR 53.1 43 69% 30.05 1017.1
06 06:56 Calm 10.00 Fair CLR 46.9 42.1 83% 30.04 1016.9
06 05:56 NW 5 10.00 Fair CLR 44.1 39.9 85% 42 30.03 1016.5
06 04:56 S 6 10.00 Fair CLR 43 39.9 57 43 89% 40 30.01 1015.8
06 03:56 Calm 10.00 Fair CLR 45 41 86% 30.01 1015.5
06 02:56 SE 5 10.00 Fair CLR 48 41 77% 47 29.99 1014.9
06 01:56 E 5 10.00 Fair CLR 46 42.1 86% 44 29.99 1014.7
06 00:56 E 3 10.00 Fair CLR 48 43 83% 29.97 1014.2
05 23:56 W 7 10.00 Fair CLR 55 45 69% 29.96 1013.6
05 22:56 N 9 10.00 Fair CLR 53.1 45 75.9 53.1 74% 29.94 1013.2
05 21:56 Vrbl 5 10.00 Fair CLR 60.1 44.1 56% 29.93 1012.6
05 20:56 NW 9 10.00 Fair CLR 60.1 45 58% 29.92 1012.6
05 19:56 NW 13 10.00 Fair CLR 64.9 43 45% 29.9 1011.8
05 18:56 NW 13 10.00 Fair CLR 70 42.1 37% 29.88 1011.1
05 17:56 NW 16 10.00 Fair CLR 73.9 37.9 27% 29.87 1010.8
05 16:56 NW 16 G 22 10.00 Fair CLR 75.9 37.9 77 71.1 25% 77 29.86 1010.5
05 15:56 NW 16 10.00 A Few Clouds FEW080 77 44.1 31% 78 29.86 1010.5
05 14:56 N 14 10.00 Fair CLR 75 42.1 31% 77 29.87 1010.6
05 13:56 NW 8 10.00 Partly Cloudy SCT075 77 45 32% 78 29.87 1010.5
05 12:56 NW 7 10.00 A Few Clouds FEW060 75 45 34% 77 29.88 1010.6
05 11:56 Calm 10.00 A Few Clouds FEW060 73 46.9 40% 29.89 1011.2
05 10:56 W 7 10.00 Fair CLR 71.1 46.9 71.1 42.1 42% 29.89 1011.0
05 09:56 NW 9 10.00 Fair CLR 69.1 46.9 45% 29.89 1011.3
05 08:56 Calm 10.00 Fair CLR 59 46 62% 29.9 1011.7
05 07:56 Calm 10.00 Fair CLR 54 45 72% 29.9 1011.8
05 06:56 Calm 10.00 Fair CLR 48.9 43 80% 29.88 1011.2
05 05:56 Calm 10.00 Fair CLR 44.1 41 89% 29.86 1010.5
05 04:56 E 3 10.00 Fair CLR 45 41 61 44.1 86% 29.85 1009.8
05 03:56 SE 3 10.00 Fair CLR 44.1 39.9 85% 29.84 1009.6
05 02:56 Calm 10.00 Fair CLR 48.9 42.1 77% 29.82 1008.9
05 01:56 N 5 10.00 Fair CLR 52 41 66% 29.82 1008.6
05 00:56 NW 3 10.00 Fair CLR 55.9 41 57% 29.82 1008.4
04 23:56 W 8 10.00 Fair CLR 55 42.1 62% 29.81 1008.2
04 22:56 NW 9 10.00 Fair CLR 61 42.1 78.1 57 50% 29.8 1007.9
04 21:56 N 7 10.00 Fair CLR 59 41 51% 29.8 1008.3
04 20:56 NW 9 10.00 Fair CLR 64.9 39.9 40% 29.78 1007.8
04 19:56 W 6 10.00 Fair CLR 66 39.9 39% 29.77 1007.4
04 18:56 NW 12 10.00 Fair CLR 72 41 33% 29.76 1007.1
04 17:56 NW 17 10.00 Fair CLR 77 37.9 24% 77 29.76 1006.9
04 16:56 NW 18 G 23 10.00 Fair CLR 78.1 39.9 80.1 66.9 26% 78 29.76 1006.7
04 15:56 NW 16 10.00 Fair CLR 79 39.9 25% 78 29.77 1006.9
04 14:56 NW 20 10.00 Fair CLR 79 35.1 20% 78 29.78 1007.2
04 13:56 N 12 10.00 Fair CLR 79 39.9 25% 78 29.79 1007.4
Date Time (pdt) Wind (mph) Vis. (mi.) Weather Sky Cond. Air Dwpt Max. Min. Relative Humidity Wind Chill (°F) Heat Index (°F) altimeter (in) sea level (mb) 1 hr 3 hr 6 hr
6 hour
Temperature (ºF) Pressure Precipitation (in)